sensor_id;sensor_type;location;lat;lon;timestamp;P1;durP1;ratioP1;P2;durP2;ratioP2
46429;SDS011;32131;53.454;-6.180;2023-01-23T00:01:38;6.50;;;2.45;;
46429;SDS011;32131;53.454;-6.180;2023-01-23T00:04:06;6.88;;;2.08;;
46429;SDS011;32131;53.454;-6.180;2023-01-23T00:06:35;4.28;;;2.15;;
46429;SDS011;32131;53.454;-6.180;2023-01-23T00:09:03;6.32;;;1.90;;
46429;SDS011;32131;53.454;-6.180;2023-01-23T00:11:32;4.95;;;1.90;;
46429;SDS011;32131;53.454;-6.180;2023-01-23T00:14:00;5.60;;;1.35;;
46429;SDS011;32131;53.454;-6.180;2023-01-23T00:16:30;6.03;;;1.58;;
46429;SDS011;32131;53.454;-6.180;2023-01-23T00:19:00;2.10;;;1.35;;
46429;SDS011;32131;53.454;-6.180;2023-01-23T00:21:30;5.05;;;1.70;;
46429;SDS011;32131;53.454;-6.180;2023-01-23T00:23:58;2.85;;;1.48;;
46429;SDS011;32131;53.454;-6.180;2023-01-23T00:26:31;3.72;;;1.40;;
46429;SDS011;32131;53.454;-6.180;2023-01-23T00:28:59;2.90;;;1.40;;
46429;SDS011;32131;53.454;-6.180;2023-01-23T00:31:30;4.13;;;1.50;;
46429;SDS011;32131;53.454;-6.180;2023-01-23T00:34:03;1.58;;;0.90;;
46429;SDS011;32131;53.454;-6.180;2023-01-23T00:36:37;2.05;;;1.17;;
46429;SDS011;32131;53.454;-6.180;2023-01-23T00:39:07;4.47;;;1.23;;
46429;SDS011;32131;53.454;-6.180;2023-01-23T00:41:38;7.35;;;1.80;;
46429;SDS011;32131;53.454;-6.180;2023-01-23T00:44:07;3.78;;;0.98;;
46429;SDS011;32131;53.454;-6.180;2023-01-23T00:46:35;2.38;;;0.90;;
46429;SDS011;32131;53.454;-6.180;2023-01-23T00:49:05;3.85;;;1.25;;
46429;SDS011;32131;53.454;-6.180;2023-01-23T00:51:34;3.03;;;0.98;;
46429;SDS011;32131;53.454;-6.180;2023-01-23T00:54:02;3.00;;;1.15;;
46429;SDS011;32131;53.454;-6.180;2023-01-23T00:56:30;8.10;;;1.48;;
46429;SDS011;32131;53.454;-6.180;2023-01-23T00:59:00;3.22;;;0.98;;
46429;SDS011;32131;53.454;-6.180;2023-01-23T01:01:28;4.68;;;1.25;;
46429;SDS011;32131;53.454;-6.180;2023-01-23T01:03:58;3.10;;;1.02;;
46429;SDS011;32131;53.454;-6.180;2023-01-23T01:06:28;6.55;;;1.40;;
46429;SDS011;32131;53.454;-6.180;2023-01-23T01:08:57;9.90;;;1.70;;
46429;SDS011;32131;53.454;-6.180;2023-01-23T01:11:26;10.68;;;2.45;;
46429;SDS011;32131;53.454;-6.180;2023-01-23T01:13:54;6.10;;;2.35;;
46429;SDS011;32131;53.454;-6.180;2023-01-23T01:16:23;3.53;;;1.70;;
46429;SDS011;32131;53.454;-6.180;2023-01-23T01:18:51;7.82;;;1.58;;
46429;SDS011;32131;53.454;-6.180;2023-01-23T01:21:20;4.68;;;1.75;;
46429;SDS011;32131;53.454;-6.180;2023-01-23T01:23:50;5.95;;;1.83;;
46429;SDS011;32131;53.454;-6.180;2023-01-23T01:26:18;7.78;;;2.22;;
46429;SDS011;32131;53.454;-6.180;2023-01-23T01:28:48;4.80;;;2.28;;
46429;SDS011;32131;53.454;-6.180;2023-01-23T01:31:16;9.30;;;2.20;;
46429;SDS011;32131;53.454;-6.180;2023-01-23T01:33:45;11.15;;;2.35;;
46429;SDS011;32131;53.454;-6.180;2023-01-23T01:36:14;10.30;;;2.50;;
46429;SDS011;32131;53.454;-6.180;2023-01-23T01:38:44;8.88;;;2.63;;
46429;SDS011;32131;53.454;-6.180;2023-01-23T01:41:14;9.77;;;3.08;;
46429;SDS011;32131;53.454;-6.180;2023-01-23T01:43:43;5.00;;;2.30;;
46429;SDS011;32131;53.454;-6.180;2023-01-23T01:46:13;9.00;;;2.90;;
46429;SDS011;32131;53.454;-6.180;2023-01-23T01:48:47;9.15;;;2.42;;
46429;SDS011;32131;53.454;-6.180;2023-01-23T01:51:24;5.32;;;2.30;;
46429;SDS011;32131;53.454;-6.180;2023-01-23T01:54:01;9.35;;;2.03;;
46429;SDS011;32131;53.454;-6.180;2023-01-23T01:56:36;6.38;;;1.58;;
46429;SDS011;32131;53.454;-6.180;2023-01-23T01:59:08;10.40;;;2.08;;
46429;SDS011;32131;53.454;-6.180;2023-01-23T02:01:39;6.03;;;1.50;;
46429;SDS011;32131;53.454;-6.180;2023-01-23T02:04:14;4.32;;;1.52;;
46429;SDS011;32131;53.454;-6.180;2023-01-23T02:06:42;7.03;;;2.03;;
46429;SDS011;32131;53.454;-6.180;2023-01-23T02:09:12;8.32;;;1.83;;
46429;SDS011;32131;53.454;-6.180;2023-01-23T02:11:45;8.00;;;2.08;;
46429;SDS011;32131;53.454;-6.180;2023-01-23T02:14:13;12.88;;;2.28;;
46429;SDS011;32131;53.454;-6.180;2023-01-23T02:16:42;7.40;;;2.00;;
46429;SDS011;32131;53.454;-6.180;2023-01-23T02:19:18;8.68;;;1.80;;
46429;SDS011;32131;53.454;-6.180;2023-01-23T02:21:58;11.85;;;1.80;;
46429;SDS011;32131;53.454;-6.180;2023-01-23T02:24:35;4.15;;;1.65;;
46429;SDS011;32131;53.454;-6.180;2023-01-23T02:27:10;4.80;;;1.55;;
46429;SDS011;32131;53.454;-6.180;2023-01-23T02:29:39;9.15;;;2.00;;
46429;SDS011;32131;53.454;-6.180;2023-01-23T02:32:09;6.28;;;1.83;;
46429;SDS011;32131;53.454;-6.180;2023-01-23T02:34:37;11.48;;;2.10;;
46429;SDS011;32131;53.454;-6.180;2023-01-23T02:37:05;6.80;;;1.98;;
46429;SDS011;32131;53.454;-6.180;2023-01-23T02:39:35;7.68;;;2.75;;
46429;SDS011;32131;53.454;-6.180;2023-01-23T02:42:04;5.90;;;2.30;;
46429;SDS011;32131;53.454;-6.180;2023-01-23T02:44:34;6.57;;;2.65;;
46429;SDS011;32131;53.454;-6.180;2023-01-23T02:47:03;5.88;;;2.88;;
46429;SDS011;32131;53.454;-6.180;2023-01-23T02:49:37;6.88;;;3.53;;
46429;SDS011;32131;53.454;-6.180;2023-01-23T02:52:05;8.93;;;3.38;;
46429;SDS011;32131;53.454;-6.180;2023-01-23T02:54:35;12.93;;;3.97;;
46429;SDS011;32131;53.454;-6.180;2023-01-23T02:57:04;14.15;;;4.22;;
46429;SDS011;32131;53.454;-6.180;2023-01-23T02:59:34;8.63;;;4.20;;
46429;SDS011;32131;53.454;-6.180;2023-01-23T03:02:20;11.02;;;4.15;;
46429;SDS011;32131;53.454;-6.180;2023-01-23T03:04:48;10.63;;;4.35;;
46429;SDS011;32131;53.454;-6.180;2023-01-23T03:07:19;16.27;;;4.25;;
46429;SDS011;32131;53.454;-6.180;2023-01-23T03:09:48;12.93;;;4.47;;
46429;SDS011;32131;53.454;-6.180;2023-01-23T03:12:16;16.85;;;3.47;;
46429;SDS011;32131;53.454;-6.180;2023-01-23T03:14:46;9.35;;;3.40;;
46429;SDS011;32131;53.454;-6.180;2023-01-23T03:17:19;4.40;;;2.58;;
46429;SDS011;32131;53.454;-6.180;2023-01-23T03:19:47;9.50;;;3.00;;
46429;SDS011;32131;53.454;-6.180;2023-01-23T03:22:17;8.30;;;2.92;;
46429;SDS011;32131;53.454;-6.180;2023-01-23T03:24:45;9.93;;;2.90;;
46429;SDS011;32131;53.454;-6.180;2023-01-23T03:27:13;8.55;;;2.67;;
46429;SDS011;32131;53.454;-6.180;2023-01-23T03:29:42;11.93;;;2.33;;
46429;SDS011;32131;53.454;-6.180;2023-01-23T03:32:29;12.40;;;2.53;;
46429;SDS011;32131;53.454;-6.180;2023-01-23T03:34:57;7.03;;;2.53;;
46429;SDS011;32131;53.454;-6.180;2023-01-23T03:37:26;9.93;;;2.30;;
46429;SDS011;32131;53.454;-6.180;2023-01-23T03:39:57;9.40;;;3.30;;
46429;SDS011;32131;53.454;-6.180;2023-01-23T03:42:43;7.85;;;2.30;;
46429;SDS011;32131;53.454;-6.180;2023-01-23T03:45:11;17.08;;;3.15;;
46429;SDS011;32131;53.454;-6.180;2023-01-23T03:47:41;5.53;;;2.20;;
46429;SDS011;32131;53.454;-6.180;2023-01-23T03:52:37;7.47;;;1.90;;
46429;SDS011;32131;53.454;-6.180;2023-01-23T03:55:06;4.88;;;2.03;;
46429;SDS011;32131;53.454;-6.180;2023-01-23T03:57:34;8.52;;;2.28;;
46429;SDS011;32131;53.454;-6.180;2023-01-23T04:00:03;4.50;;;1.85;;
46429;SDS011;32131;53.454;-6.180;2023-01-23T04:02:32;3.75;;;1.88;;
46429;SDS011;32131;53.454;-6.180;2023-01-23T04:05:02;6.32;;;1.73;;
46429;SDS011;32131;53.454;-6.180;2023-01-23T04:07:30;6.28;;;1.42;;
46429;SDS011;32131;53.454;-6.180;2023-01-23T04:10:01;9.93;;;1.27;;
46429;SDS011;32131;53.454;-6.180;2023-01-23T04:12:30;6.85;;;1.27;;
46429;SDS011;32131;53.454;-6.180;2023-01-23T04:14:58;3.60;;;1.05;;
46429;SDS011;32131;53.454;-6.180;2023-01-23T04:17:26;8.05;;;1.63;;
46429;SDS011;32131;53.454;-6.180;2023-01-23T04:19:54;4.80;;;0.90;;
46429;SDS011;32131;53.454;-6.180;2023-01-23T04:22:24;4.00;;;0.90;;
46429;SDS011;32131;53.454;-6.180;2023-01-23T04:24:52;4.10;;;1.52;;
46429;SDS011;32131;53.454;-6.180;2023-01-23T04:27:20;9.73;;;1.17;;
46429;SDS011;32131;53.454;-6.180;2023-01-23T04:29:48;5.47;;;0.70;;
46429;SDS011;32131;53.454;-6.180;2023-01-23T04:32:16;2.30;;;0.88;;
46429;SDS011;32131;53.454;-6.180;2023-01-23T04:34:44;8.02;;;1.73;;
46429;SDS011;32131;53.454;-6.180;2023-01-23T04:37:12;7.38;;;1.10;;
46429;SDS011;32131;53.454;-6.180;2023-01-23T04:39:42;8.00;;;0.88;;
46429;SDS011;32131;53.454;-6.180;2023-01-23T04:42:11;2.88;;;0.75;;
46429;SDS011;32131;53.454;-6.180;2023-01-23T04:44:39;6.78;;;1.55;;
46429;SDS011;32131;53.454;-6.180;2023-01-23T04:47:07;5.70;;;0.82;;
46429;SDS011;32131;53.454;-6.180;2023-01-23T04:49:36;3.72;;;0.90;;
46429;SDS011;32131;53.454;-6.180;2023-01-23T04:52:04;4.45;;;0.80;;
46429;SDS011;32131;53.454;-6.180;2023-01-23T04:54:33;5.00;;;1.05;;
46429;SDS011;32131;53.454;-6.180;2023-01-23T04:57:03;2.90;;;1.10;;
46429;SDS011;32131;53.454;-6.180;2023-01-23T04:59:31;4.07;;;0.88;;
46429;SDS011;32131;53.454;-6.180;2023-01-23T05:01:59;12.18;;;1.77;;
46429;SDS011;32131;53.454;-6.180;2023-01-23T05:04:30;2.55;;;1.17;;
46429;SDS011;32131;53.454;-6.180;2023-01-23T05:06:59;7.60;;;1.73;;
46429;SDS011;32131;53.454;-6.180;2023-01-23T05:09:27;3.33;;;1.45;;
46429;SDS011;32131;53.454;-6.180;2023-01-23T05:11:55;13.18;;;1.48;;
46429;SDS011;32131;53.454;-6.180;2023-01-23T05:14:25;6.07;;;1.00;;
46429;SDS011;32131;53.454;-6.180;2023-01-23T05:16:53;11.68;;;1.08;;
46429;SDS011;32131;53.454;-6.180;2023-01-23T05:19:22;4.88;;;1.15;;
46429;SDS011;32131;53.454;-6.180;2023-01-23T05:21:50;5.85;;;0.85;;
46429;SDS011;32131;53.454;-6.180;2023-01-23T05:24:18;5.55;;;1.33;;
46429;SDS011;32131;53.454;-6.180;2023-01-23T05:26:47;8.18;;;1.45;;
46429;SDS011;32131;53.454;-6.180;2023-01-23T05:29:15;5.78;;;1.30;;
46429;SDS011;32131;53.454;-6.180;2023-01-23T05:31:45;5.20;;;1.58;;
46429;SDS011;32131;53.454;-6.180;2023-01-23T05:34:13;6.97;;;1.10;;
46429;SDS011;32131;53.454;-6.180;2023-01-23T05:36:41;11.35;;;1.23;;
46429;SDS011;32131;53.454;-6.180;2023-01-23T05:39:10;7.25;;;1.10;;
46429;SDS011;32131;53.454;-6.180;2023-01-23T05:41:38;9.57;;;1.00;;
46429;SDS011;32131;53.454;-6.180;2023-01-23T05:44:15;4.60;;;0.88;;
46429;SDS011;32131;53.454;-6.180;2023-01-23T05:46:47;6.53;;;1.40;;
46429;SDS011;32131;53.454;-6.180;2023-01-23T05:49:15;4.63;;;1.08;;
46429;SDS011;32131;53.454;-6.180;2023-01-23T05:51:43;7.95;;;0.93;;
46429;SDS011;32131;53.454;-6.180;2023-01-23T05:54:12;6.53;;;0.80;;
46429;SDS011;32131;53.454;-6.180;2023-01-23T05:56:40;3.13;;;0.65;;
46429;SDS011;32131;53.454;-6.180;2023-01-23T05:59:08;4.82;;;0.75;;
46429;SDS011;32131;53.454;-6.180;2023-01-23T06:01:37;6.65;;;1.00;;
46429;SDS011;32131;53.454;-6.180;2023-01-23T06:04:06;4.15;;;0.73;;
46429;SDS011;32131;53.454;-6.180;2023-01-23T06:06:35;3.70;;;0.68;;
46429;SDS011;32131;53.454;-6.180;2023-01-23T06:09:03;3.83;;;0.82;;
46429;SDS011;32131;53.454;-6.180;2023-01-23T06:11:31;3.63;;;1.40;;
46429;SDS011;32131;53.454;-6.180;2023-01-23T06:14:02;10.30;;;1.30;;
46429;SDS011;32131;53.454;-6.180;2023-01-23T06:16:31;4.32;;;1.08;;
46429;SDS011;32131;53.454;-6.180;2023-01-23T06:18:59;4.47;;;1.00;;
46429;SDS011;32131;53.454;-6.180;2023-01-23T06:21:29;4.68;;;0.80;;
46429;SDS011;32131;53.454;-6.180;2023-01-23T06:23:57;11.88;;;1.60;;
46429;SDS011;32131;53.454;-6.180;2023-01-23T06:26:26;5.60;;;1.00;;
46429;SDS011;32131;53.454;-6.180;2023-01-23T06:28:57;4.13;;;0.88;;
46429;SDS011;32131;53.454;-6.180;2023-01-23T06:31:26;2.33;;;0.75;;
46429;SDS011;32131;53.454;-6.180;2023-01-23T06:33:58;7.80;;;1.08;;
46429;SDS011;32131;53.454;-6.180;2023-01-23T06:36:30;6.55;;;0.85;;
46429;SDS011;32131;53.454;-6.180;2023-01-23T06:38:59;5.43;;;0.70;;
46429;SDS011;32131;53.454;-6.180;2023-01-23T06:41:28;3.42;;;0.70;;
46429;SDS011;32131;53.454;-6.180;2023-01-23T06:43:56;3.72;;;0.68;;
46429;SDS011;32131;53.454;-6.180;2023-01-23T06:46:24;3.38;;;0.63;;
46429;SDS011;32131;53.454;-6.180;2023-01-23T06:48:53;3.40;;;0.90;;
46429;SDS011;32131;53.454;-6.180;2023-01-23T06:51:21;2.45;;;0.47;;
46429;SDS011;32131;53.454;-6.180;2023-01-23T06:53:54;3.60;;;0.68;;
46429;SDS011;32131;53.454;-6.180;2023-01-23T06:56:26;5.22;;;0.77;;
46429;SDS011;32131;53.454;-6.180;2023-01-23T06:58:55;3.92;;;1.00;;
46429;SDS011;32131;53.454;-6.180;2023-01-23T07:01:26;3.97;;;0.77;;
46429;SDS011;32131;53.454;-6.180;2023-01-23T07:03:55;6.85;;;1.05;;
46429;SDS011;32131;53.454;-6.180;2023-01-23T07:06:23;6.30;;;1.25;;
46429;SDS011;32131;53.454;-6.180;2023-01-23T07:08:51;5.63;;;0.65;;
46429;SDS011;32131;53.454;-6.180;2023-01-23T07:13:51;3.22;;;0.80;;
46429;SDS011;32131;53.454;-6.180;2023-01-23T07:16:19;4.70;;;0.85;;
46429;SDS011;32131;53.454;-6.180;2023-01-23T07:18:48;10.77;;;1.33;;
46429;SDS011;32131;53.454;-6.180;2023-01-23T07:21:16;2.72;;;0.52;;
46429;SDS011;32131;53.454;-6.180;2023-01-23T07:23:45;4.13;;;0.60;;
46429;SDS011;32131;53.454;-6.180;2023-01-23T07:26:13;6.75;;;0.80;;
46429;SDS011;32131;53.454;-6.180;2023-01-23T07:28:43;5.00;;;1.02;;
46429;SDS011;32131;53.454;-6.180;2023-01-23T07:31:13;8.40;;;0.80;;
46429;SDS011;32131;53.454;-6.180;2023-01-23T07:33:44;5.13;;;1.13;;
46429;SDS011;32131;53.454;-6.180;2023-01-23T07:36:12;5.15;;;1.10;;
46429;SDS011;32131;53.454;-6.180;2023-01-23T07:38:41;7.43;;;1.40;;
46429;SDS011;32131;53.454;-6.180;2023-01-23T07:41:09;7.10;;;1.25;;
46429;SDS011;32131;53.454;-6.180;2023-01-23T07:43:39;4.10;;;1.10;;
46429;SDS011;32131;53.454;-6.180;2023-01-23T07:46:08;4.90;;;1.10;;
46429;SDS011;32131;53.454;-6.180;2023-01-23T07:48:37;4.57;;;1.20;;
46429;SDS011;32131;53.454;-6.180;2023-01-23T07:51:05;6.22;;;1.42;;
46429;SDS011;32131;53.454;-6.180;2023-01-23T07:53:34;5.18;;;1.40;;
46429;SDS011;32131;53.454;-6.180;2023-01-23T07:56:03;3.60;;;0.90;;
46429;SDS011;32131;53.454;-6.180;2023-01-23T07:58:31;11.35;;;1.52;;
46429;SDS011;32131;53.454;-6.180;2023-01-23T08:01:05;6.20;;;1.23;;
46429;SDS011;32131;53.454;-6.180;2023-01-23T08:03:36;5.28;;;1.25;;
46429;SDS011;32131;53.454;-6.180;2023-01-23T08:06:05;7.00;;;1.42;;
46429;SDS011;32131;53.454;-6.180;2023-01-23T08:08:34;8.48;;;1.33;;
46429;SDS011;32131;53.454;-6.180;2023-01-23T08:11:03;7.72;;;1.67;;
46429;SDS011;32131;53.454;-6.180;2023-01-23T08:13:35;4.18;;;1.45;;
46429;SDS011;32131;53.454;-6.180;2023-01-23T08:16:04;12.68;;;1.58;;
46429;SDS011;32131;53.454;-6.180;2023-01-23T08:18:33;4.97;;;1.37;;
46429;SDS011;32131;53.454;-6.180;2023-01-23T08:21:03;13.88;;;1.55;;
46429;SDS011;32131;53.454;-6.180;2023-01-23T08:23:34;7.53;;;1.33;;
46429;SDS011;32131;53.454;-6.180;2023-01-23T08:26:04;9.48;;;1.52;;
46429;SDS011;32131;53.454;-6.180;2023-01-23T08:28:34;4.55;;;1.27;;
46429;SDS011;32131;53.454;-6.180;2023-01-23T08:31:03;6.53;;;1.17;;
46429;SDS011;32131;53.454;-6.180;2023-01-23T08:33:33;7.55;;;1.42;;
46429;SDS011;32131;53.454;-6.180;2023-01-23T08:36:06;5.05;;;1.30;;
46429;SDS011;32131;53.454;-6.180;2023-01-23T08:38:36;6.10;;;1.48;;
46429;SDS011;32131;53.454;-6.180;2023-01-23T08:41:05;9.65;;;1.73;;
46429;SDS011;32131;53.454;-6.180;2023-01-23T08:43:35;4.75;;;0.90;;
46429;SDS011;32131;53.454;-6.180;2023-01-23T08:46:04;10.45;;;1.55;;
46429;SDS011;32131;53.454;-6.180;2023-01-23T08:48:32;3.97;;;1.33;;
46429;SDS011;32131;53.454;-6.180;2023-01-23T08:51:02;11.82;;;1.65;;
46429;SDS011;32131;53.454;-6.180;2023-01-23T08:53:36;10.13;;;1.10;;
46429;SDS011;32131;53.454;-6.180;2023-01-23T08:56:06;5.47;;;1.48;;
46429;SDS011;32131;53.454;-6.180;2023-01-23T08:58:37;7.45;;;1.83;;
46429;SDS011;32131;53.454;-6.180;2023-01-23T09:01:09;9.82;;;1.25;;
46429;SDS011;32131;53.454;-6.180;2023-01-23T09:03:38;3.25;;;1.67;;
46429;SDS011;32131;53.454;-6.180;2023-01-23T09:06:08;10.85;;;1.80;;
46429;SDS011;32131;53.454;-6.180;2023-01-23T09:08:37;5.32;;;1.77;;
46429;SDS011;32131;53.454;-6.180;2023-01-23T09:11:07;8.27;;;1.55;;
46429;SDS011;32131;53.454;-6.180;2023-01-23T09:13:37;4.15;;;1.25;;
46429;SDS011;32131;53.454;-6.180;2023-01-23T09:16:06;7.60;;;1.30;;
46429;SDS011;32131;53.454;-6.180;2023-01-23T09:18:35;5.85;;;2.05;;
46429;SDS011;32131;53.454;-6.180;2023-01-23T09:21:04;5.70;;;1.35;;
46429;SDS011;32131;53.454;-6.180;2023-01-23T09:23:36;8.27;;;2.03;;
46429;SDS011;32131;53.454;-6.180;2023-01-23T09:26:05;7.82;;;1.83;;
46429;SDS011;32131;53.454;-6.180;2023-01-23T09:28:34;7.63;;;1.77;;
46429;SDS011;32131;53.454;-6.180;2023-01-23T09:31:04;9.32;;;1.83;;
46429;SDS011;32131;53.454;-6.180;2023-01-23T09:33:36;8.38;;;1.48;;
46429;SDS011;32131;53.454;-6.180;2023-01-23T09:36:05;11.25;;;1.90;;
46429;SDS011;32131;53.454;-6.180;2023-01-23T09:38:34;4.03;;;1.40;;
46429;SDS011;32131;53.454;-6.180;2023-01-23T09:41:07;4.57;;;1.50;;
46429;SDS011;32131;53.454;-6.180;2023-01-23T09:43:39;11.10;;;1.30;;
46429;SDS011;32131;53.454;-6.180;2023-01-23T09:46:18;8.18;;;1.55;;
46429;SDS011;32131;53.454;-6.180;2023-01-23T09:48:51;7.82;;;2.17;;
46429;SDS011;32131;53.454;-6.180;2023-01-23T09:51:24;6.63;;;1.20;;
46429;SDS011;32131;53.454;-6.180;2023-01-23T09:53:59;10.75;;;1.55;;
46429;SDS011;32131;53.454;-6.180;2023-01-23T09:56:35;5.28;;;1.40;;
46429;SDS011;32131;53.454;-6.180;2023-01-23T09:59:11;7.05;;;1.40;;
46429;SDS011;32131;53.454;-6.180;2023-01-23T10:01:43;6.20;;;1.27;;
46429;SDS011;32131;53.454;-6.180;2023-01-23T10:04:11;6.68;;;1.48;;
46429;SDS011;32131;53.454;-6.180;2023-01-23T10:06:56;7.72;;;1.67;;
46429;SDS011;32131;53.454;-6.180;2023-01-23T10:09:52;6.97;;;2.30;;
46429;SDS011;32131;53.454;-6.180;2023-01-23T10:12:36;13.27;;;2.45;;
46429;SDS011;32131;53.454;-6.180;2023-01-23T10:15:16;6.72;;;2.30;;
46429;SDS011;32131;53.454;-6.180;2023-01-23T10:17:56;8.00;;;2.05;;
46429;SDS011;32131;53.454;-6.180;2023-01-23T10:20:43;6.35;;;2.58;;
46429;SDS011;32131;53.454;-6.180;2023-01-23T10:23:40;4.85;;;2.40;;
46429;SDS011;32131;53.454;-6.180;2023-01-23T10:26:21;7.05;;;3.50;;
46429;SDS011;32131;53.454;-6.180;2023-01-23T10:28:52;6.28;;;3.08;;
46429;SDS011;32131;53.454;-6.180;2023-01-23T10:31:27;6.32;;;2.78;;
46429;SDS011;32131;53.454;-6.180;2023-01-23T10:34:05;7.38;;;2.45;;
46429;SDS011;32131;53.454;-6.180;2023-01-23T10:36:44;6.22;;;2.38;;
46429;SDS011;32131;53.454;-6.180;2023-01-23T10:39:24;4.72;;;1.90;;
46429;SDS011;32131;53.454;-6.180;2023-01-23T10:41:55;8.52;;;2.63;;
46429;SDS011;32131;53.454;-6.180;2023-01-23T10:44:29;5.95;;;2.75;;
46429;SDS011;32131;53.454;-6.180;2023-01-23T10:47:01;6.07;;;2.08;;
46429;SDS011;32131;53.454;-6.180;2023-01-23T10:49:34;4.68;;;2.30;;
46429;SDS011;32131;53.454;-6.180;2023-01-23T10:52:04;6.97;;;3.13;;
46429;SDS011;32131;53.454;-6.180;2023-01-23T10:54:58;9.43;;;3.17;;
46429;SDS011;32131;53.454;-6.180;2023-01-23T10:57:36;9.80;;;3.13;;
46429;SDS011;32131;53.454;-6.180;2023-01-23T11:00:19;7.05;;;2.90;;
46429;SDS011;32131;53.454;-6.180;2023-01-23T11:02:52;5.13;;;3.10;;
46429;SDS011;32131;53.454;-6.180;2023-01-23T11:05:32;13.10;;;3.83;;
46429;SDS011;32131;53.454;-6.180;2023-01-23T11:08:20;9.68;;;3.42;;
46429;SDS011;32131;53.454;-6.180;2023-01-23T11:10:50;12.63;;;3.65;;
46429;SDS011;32131;53.454;-6.180;2023-01-23T11:13:27;6.65;;;2.85;;
46429;SDS011;32131;53.454;-6.180;2023-01-23T11:15:56;6.22;;;3.13;;
46429;SDS011;32131;53.454;-6.180;2023-01-23T11:18:28;9.73;;;2.90;;
46429;SDS011;32131;53.454;-6.180;2023-01-23T11:20:59;5.35;;;2.65;;
46429;SDS011;32131;53.454;-6.180;2023-01-23T11:23:28;9.82;;;3.35;;
46429;SDS011;32131;53.454;-6.180;2023-01-23T11:25:57;10.70;;;3.30;;
46429;SDS011;32131;53.454;-6.180;2023-01-23T11:28:28;8.48;;;3.22;;
46429;SDS011;32131;53.454;-6.180;2023-01-23T11:31:00;7.50;;;2.63;;
46429;SDS011;32131;53.454;-6.180;2023-01-23T11:33:44;7.72;;;2.70;;
46429;SDS011;32131;53.454;-6.180;2023-01-23T11:39:22;8.40;;;3.05;;
46429;SDS011;32131;53.454;-6.180;2023-01-23T11:42:02;8.38;;;2.63;;
46429;SDS011;32131;53.454;-6.180;2023-01-23T11:44:32;6.40;;;2.38;;
46429;SDS011;32131;53.454;-6.180;2023-01-23T11:47:22;6.80;;;3.00;;
46429;SDS011;32131;53.454;-6.180;2023-01-23T11:50:15;9.88;;;3.10;;
46429;SDS011;32131;53.454;-6.180;2023-01-23T11:52:56;4.32;;;2.22;;
46429;SDS011;32131;53.454;-6.180;2023-01-23T11:55:34;7.82;;;2.75;;
46429;SDS011;32131;53.454;-6.180;2023-01-23T12:01:17;4.97;;;1.98;;
46429;SDS011;32131;53.454;-6.180;2023-01-23T12:07:10;3.92;;;1.83;;
46429;SDS011;32131;53.454;-6.180;2023-01-23T12:09:46;7.28;;;2.30;;
46429;SDS011;32131;53.454;-6.180;2023-01-23T12:12:28;3.35;;;1.23;;
46429;SDS011;32131;53.454;-6.180;2023-01-23T12:15:20;4.90;;;1.73;;
46429;SDS011;32131;53.454;-6.180;2023-01-23T12:18:02;6.20;;;1.80;;
46429;SDS011;32131;53.454;-6.180;2023-01-23T12:20:41;3.63;;;1.55;;
46429;SDS011;32131;53.454;-6.180;2023-01-23T12:23:24;7.20;;;1.20;;
46429;SDS011;32131;53.454;-6.180;2023-01-23T12:26:06;5.10;;;1.63;;
46429;SDS011;32131;53.454;-6.180;2023-01-23T12:32:04;3.78;;;1.50;;
46429;SDS011;32131;53.454;-6.180;2023-01-23T12:34:48;6.85;;;1.73;;
46429;SDS011;32131;53.454;-6.180;2023-01-23T12:37:33;9.75;;;1.70;;
46429;SDS011;32131;53.454;-6.180;2023-01-23T12:40:12;10.20;;;1.55;;
46429;SDS011;32131;53.454;-6.180;2023-01-23T12:42:49;6.80;;;1.83;;
46429;SDS011;32131;53.454;-6.180;2023-01-23T12:45:22;6.22;;;1.50;;
46429;SDS011;32131;53.454;-6.180;2023-01-23T12:47:56;8.30;;;1.17;;
46429;SDS011;32131;53.454;-6.180;2023-01-23T12:50:34;5.90;;;1.70;;
46429;SDS011;32131;53.454;-6.180;2023-01-23T12:53:12;10.77;;;1.60;;
46429;SDS011;32131;53.454;-6.180;2023-01-23T12:55:42;4.88;;;1.60;;
46429;SDS011;32131;53.454;-6.180;2023-01-23T12:58:20;7.07;;;1.23;;
46429;SDS011;32131;53.454;-6.180;2023-01-23T13:00:57;3.80;;;1.20;;
46429;SDS011;32131;53.454;-6.180;2023-01-23T13:03:50;6.07;;;1.10;;
46429;SDS011;32131;53.454;-6.180;2023-01-23T13:06:34;5.70;;;1.10;;
46429;SDS011;32131;53.454;-6.180;2023-01-23T13:09:19;4.93;;;1.00;;
46429;SDS011;32131;53.454;-6.180;2023-01-23T13:11:57;5.25;;;1.05;;
46429;SDS011;32131;53.454;-6.180;2023-01-23T13:14:37;2.70;;;1.00;;
46429;SDS011;32131;53.454;-6.180;2023-01-23T13:17:34;3.92;;;1.30;;
46429;SDS011;32131;53.454;-6.180;2023-01-23T13:20:16;6.63;;;1.08;;
46429;SDS011;32131;53.454;-6.180;2023-01-23T13:23:25;9.85;;;1.40;;
46429;SDS011;32131;53.454;-6.180;2023-01-23T13:28:55;5.20;;;1.13;;
46429;SDS011;32131;53.454;-6.180;2023-01-23T13:31:32;3.65;;;1.35;;
46429;SDS011;32131;53.454;-6.180;2023-01-23T13:34:03;3.95;;;1.20;;
46429;SDS011;32131;53.454;-6.180;2023-01-23T13:40:08;5.90;;;1.17;;
46429;SDS011;32131;53.454;-6.180;2023-01-23T13:42:41;12.82;;;1.65;;
46429;SDS011;32131;53.454;-6.180;2023-01-23T13:45:17;6.85;;;1.50;;
46429;SDS011;32131;53.454;-6.180;2023-01-23T13:48:10;9.25;;;1.48;;
46429;SDS011;32131;53.454;-6.180;2023-01-23T13:51:36;5.40;;;1.35;;
46429;SDS011;32131;53.454;-6.180;2023-01-23T13:54:26;8.88;;;1.60;;
46429;SDS011;32131;53.454;-6.180;2023-01-23T13:57:29;6.90;;;1.30;;
46429;SDS011;32131;53.454;-6.180;2023-01-23T14:00:12;3.78;;;1.20;;
46429;SDS011;32131;53.454;-6.180;2023-01-23T14:02:58;5.22;;;1.38;;
46429;SDS011;32131;53.454;-6.180;2023-01-23T14:06:09;7.68;;;1.88;;
46429;SDS011;32131;53.454;-6.180;2023-01-23T14:08:53;6.57;;;1.50;;
46429;SDS011;32131;53.454;-6.180;2023-01-23T14:11:36;7.00;;;1.27;;
46429;SDS011;32131;53.454;-6.180;2023-01-23T14:14:22;4.38;;;1.20;;
46429;SDS011;32131;53.454;-6.180;2023-01-23T14:17:22;7.10;;;1.88;;
46429;SDS011;32131;53.454;-6.180;2023-01-23T14:20:12;6.43;;;1.40;;
46429;SDS011;32131;53.454;-6.180;2023-01-23T14:22:58;6.25;;;1.08;;
46429;SDS011;32131;53.454;-6.180;2023-01-23T14:25:27;5.13;;;1.50;;
46429;SDS011;32131;53.454;-6.180;2023-01-23T14:28:01;4.63;;;1.20;;
46429;SDS011;32131;53.454;-6.180;2023-01-23T14:30:34;9.18;;;1.67;;
46429;SDS011;32131;53.454;-6.180;2023-01-23T14:33:09;8.70;;;1.30;;
46429;SDS011;32131;53.454;-6.180;2023-01-23T14:35:38;6.25;;;2.05;;
46429;SDS011;32131;53.454;-6.180;2023-01-23T14:38:06;4.43;;;1.65;;
46429;SDS011;32131;53.454;-6.180;2023-01-23T14:40:35;10.70;;;1.88;;
46429;SDS011;32131;53.454;-6.180;2023-01-23T14:43:17;3.78;;;1.33;;
46429;SDS011;32131;53.454;-6.180;2023-01-23T14:45:58;6.93;;;1.75;;
46429;SDS011;32131;53.454;-6.180;2023-01-23T14:48:30;5.20;;;1.33;;
46429;SDS011;32131;53.454;-6.180;2023-01-23T14:51:02;2.28;;;1.02;;
46429;SDS011;32131;53.454;-6.180;2023-01-23T14:53:35;2.67;;;0.80;;
46429;SDS011;32131;53.454;-6.180;2023-01-23T14:56:06;2.80;;;0.90;;
46429;SDS011;32131;53.454;-6.180;2023-01-23T14:58:37;1.92;;;0.63;;
46429;SDS011;32131;53.454;-6.180;2023-01-23T15:01:07;2.60;;;1.10;;
46429;SDS011;32131;53.454;-6.180;2023-01-23T15:03:39;3.85;;;1.27;;
46429;SDS011;32131;53.454;-6.180;2023-01-23T15:06:10;5.63;;;1.17;;
46429;SDS011;32131;53.454;-6.180;2023-01-23T15:08:42;1.58;;;0.77;;
46429;SDS011;32131;53.454;-6.180;2023-01-23T15:11:13;3.25;;;0.75;;
46429;SDS011;32131;53.454;-6.180;2023-01-23T15:13:43;6.90;;;1.15;;
46429;SDS011;32131;53.454;-6.180;2023-01-23T15:16:19;7.20;;;1.58;;
46429;SDS011;32131;53.454;-6.180;2023-01-23T15:18:52;2.92;;;1.20;;
46429;SDS011;32131;53.454;-6.180;2023-01-23T15:21:27;2.63;;;1.20;;
46429;SDS011;32131;53.454;-6.180;2023-01-23T15:24:03;3.80;;;1.35;;
46429;SDS011;32131;53.454;-6.180;2023-01-23T15:26:57;3.22;;;1.15;;
46429;SDS011;32131;53.454;-6.180;2023-01-23T15:29:29;2.10;;;1.08;;
46429;SDS011;32131;53.454;-6.180;2023-01-23T15:31:59;4.40;;;1.90;;